Time;durP1;ratioP1;P1;durP2;ratioP2;P2;SDS_P1;SDS_P2;PMS_P1;PMS_P2;Temp;Humidity;BMP_temperature;BMP_pressure;BME280_temperature;BME280_humidity;BME280_pressure;Samples;Min_cycle;Max_cycle;Signal;HPM_P1;HPM_P2
2021/11/14 00:01:31;;;;;;;60.10;41.60;;;13.30;89.60;;;;;;5051770;28;20025;-70
2021/11/14 00:03:57;;;;;;;61.25;43.13;;;13.30;89.70;;;;;;5051272;28;20028;-73
2021/11/14 00:06:22;;;;;;;65.95;42.70;;;13.30;89.80;;;;;;5051826;28;20453;-70
2021/11/14 00:08:50;;;;;;;63.47;42.75;;;13.30;89.90;;;;;;5051427;28;20029;-70
2021/11/14 00:11:18;;;;;;;62.47;43.38;;;13.30;89.90;;;;;;5051484;28;20040;-70
2021/11/14 00:13:45;;;;;;;65.78;45.20;;;13.30;89.90;;;;;;5051365;28;20473;-70
2021/11/14 00:16:12;;;;;;;62.35;42.33;;;13.30;90.00;;;;;;5051210;28;20033;-70
2021/11/14 00:18:40;;;;;;;61.50;41.45;;;13.30;90.00;;;;;;5051268;28;20049;-70
2021/11/14 00:21:06;;;;;;;60.25;42.38;;;13.40;90.00;;;;;;5051513;28;20082;-71
2021/11/14 00:23:32;;;;;;;59.95;43.30;;;13.40;90.00;;;;;;5051761;28;20028;-69
2021/11/14 00:25:58;;;;;;;60.35;42.53;;;13.40;90.00;;;;;;5051693;28;20029;-70
2021/11/14 00:28:24;;;;;;;57.33;40.47;;;13.30;90.00;;;;;;5051720;28;20021;-70
2021/11/14 00:30:50;;;;;;;53.78;39.30;;;13.30;90.00;;;;;;5052031;28;20017;-70
2021/11/14 00:33:17;;;;;;;58.40;40.30;;;13.40;90.10;;;;;;5051529;28;20096;-70
2021/11/14 00:35:43;;;;;;;60.15;41.60;;;13.30;90.10;;;;;;5051604;28;20041;-70
2021/11/14 00:38:10;;;;;;;59.33;40.40;;;13.40;90.10;;;;;;5051178;28;20436;-73
2021/11/14 00:40:37;;;;;;;56.03;40.72;;;13.30;90.20;;;;;;5051298;28;20025;-71
2021/11/14 00:43:04;;;;;;;60.17;39.25;;;13.40;90.20;;;;;;5051297;28;20104;-70
2021/11/14 00:45:32;;;;;;;60.05;40.35;;;13.40;90.20;;;;;;5050849;28;20021;-69
2021/11/14 00:48:01;;;;;;;54.92;39.85;;;13.40;90.20;;;;;;5050868;28;20021;-70
2021/11/14 00:50:27;;;;;;;55.35;39.08;;;13.40;90.20;;;;;;5050964;28;20036;-70
2021/11/14 00:52:53;;;;;;;54.85;38.28;;;13.40;90.20;;;;;;5049642;28;20033;-70
2021/11/14 00:55:20;;;;;;;55.92;39.63;;;13.30;90.10;;;;;;5051982;28;20484;-70
2021/11/14 00:57:47;;;;;;;51.45;36.38;;;13.30;90.20;;;;;;5055058;28;20125;-70
2021/11/14 01:00:18;;;;;;;54.05;38.15;;;13.30;90.20;;;;;;5054840;28;20025;-70
2021/11/14 01:02:44;;;;;;;50.55;36.05;;;13.30;90.20;;;;;;5055224;28;20388;-70
2021/11/14 01:05:12;;;;;;;50.30;35.05;;;13.40;90.20;;;;;;5053882;28;20485;-70
2021/11/14 01:07:38;;;;;;;49.13;34.33;;;13.30;90.20;;;;;;5055053;28;20157;-69
2021/11/14 01:10:06;;;;;;;45.60;33.45;;;13.40;90.30;;;;;;5054919;28;20056;-69
2021/11/14 01:12:32;;;;;;;46.65;31.33;;;13.40;90.30;;;;;;5054828;28;20026;-69
2021/11/14 01:14:57;;;;;;;39.97;29.40;;;13.40;90.30;;;;;;5054738;28;20028;-69
2021/11/14 01:17:23;;;;;;;42.17;28.52;;;13.40;90.30;;;;;;5054901;28;20032;-70
2021/11/14 01:19:49;;;;;;;39.42;27.98;;;13.40;90.30;;;;;;5054558;28;20045;-70
2021/11/14 01:22:16;;;;;;;39.72;27.42;;;13.40;90.30;;;;;;5055063;28;20028;-70
2021/11/14 01:24:42;;;;;;;44.38;27.70;;;13.30;90.30;;;;;;5054888;28;20025;-70
2021/11/14 01:27:08;;;;;;;40.60;27.23;;;13.40;90.30;;;;;;5054687;28;20127;-70
2021/11/14 01:29:34;;;;;;;37.42;26.48;;;13.40;90.30;;;;;;5054331;28;20505;-69
2021/11/14 01:32:00;;;;;;;38.35;25.55;;;13.40;90.30;;;;;;5054830;28;20439;-69
2021/11/14 01:34:26;;;;;;;39.88;24.17;;;13.40;90.30;;;;;;5054652;28;20032;-70
2021/11/14 01:36:51;;;;;;;41.42;25.13;;;13.40;90.30;;;;;;5054312;28;20032;-69
2021/11/14 01:39:17;;;;;;;34.85;24.75;;;13.40;90.40;;;;;;5054191;28;20029;-69
2021/11/14 01:41:43;;;;;;;39.25;24.23;;;13.40;90.40;;;;;;5055043;28;20032;-69
2021/11/14 01:44:10;;;;;;;35.05;23.45;;;13.40;90.30;;;;;;5054086;28;20029;-70
2021/11/14 01:46:36;;;;;;;37.70;24.23;;;13.40;90.30;;;;;;5052881;28;20036;-70
2021/11/14 01:49:04;;;;;;;38.60;23.55;;;13.40;90.30;;;;;;5053793;28;20017;-71
2021/11/14 01:51:29;;;;;;;36.60;23.55;;;13.30;90.30;;;;;;5054120;28;20572;-70
2021/11/14 01:53:56;;;;;;;32.80;22.38;;;13.30;90.40;;;;;;5054428;28;20108;-70
2021/11/14 01:56:23;;;;;;;36.92;23.38;;;13.30;90.40;;;;;;5054036;28;20048;-69
2021/11/14 01:58:49;;;;;;;37.60;24.75;;;13.30;90.40;;;;;;5052038;28;20032;-69
2021/11/14 02:01:17;;;;;;;33.08;23.58;;;13.40;90.40;;;;;;5051429;28;20061;-70
2021/11/14 02:03:48;;;;;;;39.88;25.60;;;13.30;90.30;;;;;;5051075;28;20489;-69
2021/11/14 02:06:15;;;;;;;39.47;24.27;;;13.30;90.30;;;;;;5052502;28;20029;-70
2021/11/14 02:08:42;;;;;;;38.97;24.55;;;13.30;90.30;;;;;;5053340;28;20532;-69
2021/11/14 02:11:09;;;;;;;36.45;24.58;;;13.30;90.40;;;;;;5053883;28;20139;-70
2021/11/14 02:13:35;;;;;;;36.33;23.42;;;13.30;90.40;;;;;;5053746;28;20108;-70
2021/11/14 02:16:02;;;;;;;34.00;23.65;;;13.40;90.50;;;;;;5053332;28;20091;-69
2021/11/14 02:18:27;;;;;;;34.50;22.15;;;13.30;90.40;;;;;;5053793;28;20120;-70
2021/11/14 02:20:53;;;;;;;33.80;22.23;;;13.30;90.40;;;;;;5053548;28;20521;-69
2021/11/14 02:23:23;;;;;;;36.55;22.33;;;13.30;90.40;;;;;;5053570;28;20340;-70
2021/11/14 02:25:50;;;;;;;32.08;20.92;;;13.30;90.70;;;;;;5053525;28;20079;-70
2021/11/14 02:28:19;;;;;;;35.75;23.63;;;13.30;90.40;;;;;;5053291;28;20024;-70
2021/11/14 02:30:47;;;;;;;31.10;20.88;;;13.30;90.40;;;;;;5052993;28;20083;-70
2021/11/14 02:33:13;;;;;;;31.40;22.05;;;13.30;90.40;;;;;;5053492;28;20021;-70
2021/11/14 02:35:44;;;;;;;29.77;20.58;;;13.30;90.30;;;;;;5052869;28;20036;-69
2021/11/14 02:38:11;;;;;;;31.60;20.00;;;13.30;90.30;;;;;;5053426;28;20300;-69
2021/11/14 02:40:38;;;;;;;32.95;20.23;;;13.30;90.30;;;;;;5053231;28;20020;-70
2021/11/14 02:43:04;;;;;;;31.42;21.30;;;13.30;90.30;;;;;;5052801;28;20060;-70
2021/11/14 02:45:30;;;;;;;29.30;20.02;;;13.30;90.30;;;;;;5053375;28;20376;-69
2021/11/14 02:47:56;;;;;;;28.95;19.50;;;13.30;90.20;;;;;;5053027;28;20112;-70
2021/11/14 02:50:22;;;;;;;30.38;20.05;;;13.30;90.30;;;;;;5053052;28;20500;-70
2021/11/14 02:52:49;;;;;;;24.42;17.95;;;13.30;90.20;;;;;;5051654;28;20028;-70
2021/11/14 02:55:18;;;;;;;26.05;18.77;;;13.30;90.20;;;;;;5053361;28;20212;-70
2021/11/14 02:57:44;;;;;;;26.25;18.27;;;13.30;90.30;;;;;;5052648;28;20029;-70
2021/11/14 03:00:15;;;;;;;22.77;16.73;;;13.30;90.30;;;;;;5053085;28;20025;-70
2021/11/14 03:02:42;;;;;;;27.73;16.92;;;13.30;90.20;;;;;;5052910;28;20036;-70
2021/11/14 03:05:14;;;;;;;23.33;16.75;;;13.30;90.20;;;;;;5052652;28;20086;-70
2021/11/14 03:07:40;;;;;;;25.95;15.77;;;13.30;90.20;;;;;;5052911;28;20017;-69
2021/11/14 03:10:09;;;;;;;22.48;15.40;;;13.30;90.20;;;;;;5052572;28;20033;-69
2021/11/14 03:12:35;;;;;;;21.48;15.10;;;13.30;90.10;;;;;;5052595;28;20385;-70
2021/11/14 03:15:01;;;;;;;19.95;14.43;;;13.30;90.10;;;;;;5052463;28;20414;-70
2021/11/14 03:17:27;;;;;;;22.17;14.63;;;13.30;90.10;;;;;;5052206;28;20037;-69
2021/11/14 03:19:54;;;;;;;18.80;14.43;;;13.30;90.00;;;;;;5051907;28;20111;-69
2021/11/14 03:22:20;;;;;;;20.17;14.73;;;13.30;90.00;;;;;;5052463;28;20032;-70
2021/11/14 03:24:48;;;;;;;19.63;14.45;;;13.30;90.00;;;;;;5052468;28;20021;-71
2021/11/14 03:27:14;;;;;;;20.33;13.60;;;13.30;90.00;;;;;;5052465;28;20029;-71
2021/11/14 03:29:40;;;;;;;22.95;14.48;;;13.30;89.80;;;;;;5052564;28;20112;-71
2021/11/14 03:32:10;;;;;;;20.30;13.68;;;13.30;89.60;;;;;;5052036;28;20200;-70
2021/11/14 03:34:35;;;;;;;18.83;13.98;;;13.30;89.40;;;;;;5052518;28;20029;-70
2021/11/14 03:37:11;;;;;;;21.38;14.23;;;13.30;89.40;;;;;;5052019;28;20094;-70
2021/11/14 03:39:37;;;;;;;17.05;12.88;;;13.40;89.40;;;;;;5052470;28;20459;-69
2021/11/14 03:42:02;;;;;;;20.08;13.13;;;13.40;89.40;;;;;;5051963;28;20033;-70
2021/11/14 03:44:28;;;;;;;17.48;12.93;;;13.30;89.30;;;;;;5051962;28;20024;-70
2021/11/14 03:46:54;;;;;;;16.75;12.98;;;13.30;89.30;;;;;;5052091;28;20481;-70
2021/11/14 03:49:19;;;;;;;16.27;13.18;;;13.30;89.30;;;;;;5051721;28;20028;-69
2021/11/14 03:51:45;;;;;;;16.65;12.73;;;13.40;89.30;;;;;;5052040;28;20474;-69
2021/11/14 03:54:11;;;;;;;19.63;13.23;;;13.40;89.30;;;;;;5051720;28;20431;-70
2021/11/14 03:56:36;;;;;;;18.80;13.13;;;13.30;89.20;;;;;;5051927;28;20481;-69
2021/11/14 03:59:03;;;;;;;21.27;12.93;;;13.30;89.20;;;;;;5052212;28;20029;-70
2021/11/14 04:01:28;;;;;;;19.90;13.90;;;13.40;89.20;;;;;;5051896;28;20025;-71
2021/11/14 04:03:55;;;;;;;17.15;11.98;;;13.30;89.10;;;;;;5052396;28;20177;-70
2021/11/14 04:06:21;;;;;;;17.77;12.65;;;13.40;89.10;;;;;;5051775;28;20103;-70
2021/11/14 04:08:47;;;;;;;20.85;12.82;;;13.30;89.00;;;;;;5051772;28;20385;-70
2021/11/14 04:11:13;;;;;;;17.10;12.73;;;13.30;89.10;;;;;;5051804;28;20024;-73
2021/11/14 04:13:39;;;;;;;15.98;12.68;;;13.30;89.10;;;;;;5051552;28;20021;-70
2021/11/14 04:16:07;;;;;;;19.95;12.70;;;13.30;89.20;;;;;;5051521;28;20037;-70
2021/11/14 04:18:33;;;;;;;18.52;13.57;;;13.30;89.30;;;;;;5051095;28;20087;-70
2021/11/14 04:20:59;;;;;;;21.00;15.70;;;13.30;89.40;;;;;;5051630;28;20028;-70
2021/11/14 04:23:25;;;;;;;21.83;16.92;;;13.30;89.50;;;;;;5051720;28;20112;-70
2021/11/14 04:25:52;;;;;;;26.17;18.33;;;13.20;89.70;;;;;;5051533;28;20296;-69
2021/11/14 04:28:19;;;;;;;28.05;17.77;;;13.20;89.80;;;;;;5051381;28;20033;-70
2021/11/14 04:30:46;;;;;;;25.55;18.52;;;13.20;89.90;;;;;;5050810;28;20021;-70
2021/11/14 04:33:13;;;;;;;23.13;17.42;;;13.20;90.00;;;;;;5051669;28;20086;-69
2021/11/14 04:35:39;;;;;;;21.80;15.93;;;13.20;90.00;;;;;;5051012;28;20461;-70
2021/11/14 04:38:05;;;;;;;20.52;16.35;;;13.20;90.10;;;;;;5051393;28;20026;-70
2021/11/14 04:40:35;;;;;;;22.38;14.20;;;13.20;90.10;;;;;;5050879;28;20235;-70
2021/11/14 04:43:01;;;;;;;14.98;11.85;;;13.20;90.10;;;;;;5051032;28;20025;-70
2021/11/14 04:45:30;;;;;;;19.73;11.43;;;13.20;90.00;;;;;;5051311;28;20021;-72
2021/11/14 04:47:56;;;;;;;12.80;10.13;;;13.20;90.00;;;;;;5051595;28;20485;-70
2021/11/14 04:50:23;;;;;;;14.55;10.02;;;13.30;89.80;;;;;;5051296;28;20060;-69
2021/11/14 04:52:50;;;;;;;12.23;9.35;;;13.20;89.50;;;;;;5051603;28;20021;-69
2021/11/14 04:55:16;;;;;;;14.60;9.52;;;13.20;89.40;;;;;;5051342;28;20393;-70
2021/11/14 04:57:42;;;;;;;12.55;8.43;;;13.30;89.20;;;;;;5051425;28;20091;-70
2021/11/14 05:00:12;;;;;;;12.30;8.60;;;13.20;88.90;;;;;;5051098;28;20029;-69
2021/11/14 05:02:38;;;;;;;9.43;7.95;;;13.20;88.70;;;;;;5051257;28;20032;-70
2021/11/14 05:05:05;;;;;;;13.35;8.30;;;13.20;88.50;;;;;;5051341;28;20033;-70
2021/11/14 05:07:30;;;;;;;10.25;8.30;;;13.30;88.30;;;;;;5050849;28;20033;-70
2021/11/14 05:09:56;;;;;;;11.63;8.55;;;13.30;88.30;;;;;;5050764;28;20052;-70
2021/11/14 05:12:22;;;;;;;12.55;8.80;;;13.30;88.10;;;;;;5050955;28;20370;-69
2021/11/14 05:14:47;;;;;;;12.43;7.60;;;13.30;88.00;;;;;;5050658;28;20036;-69
2021/11/14 05:17:13;;;;;;;12.23;7.93;;;13.30;87.80;;;;;;5050980;28;20031;-70
2021/11/14 05:19:39;;;;;;;9.95;7.38;;;13.30;88.10;;;;;;5050526;28;20505;-69
2021/11/14 05:22:04;;;;;;;12.07;8.23;;;13.30;87.30;;;;;;5050804;28;20032;-70
2021/11/14 05:24:30;;;;;;;9.23;7.43;;;13.30;87.00;;;;;;5050471;28;20025;-70
2021/11/14 05:26:57;;;;;;;14.65;7.70;;;13.40;86.80;;;;;;5050516;28;20473;-70
2021/11/14 05:29:23;;;;;;;9.43;7.68;;;13.40;86.80;;;;;;5049274;28;20029;-70
2021/11/14 05:31:49;;;;;;;11.45;6.85;;;13.30;86.70;;;;;;5050655;28;20363;-70
2021/11/14 05:34:15;;;;;;;8.80;7.32;;;13.40;86.70;;;;;;5050985;28;20029;-70
2021/11/14 05:36:41;;;;;;;9.00;7.13;;;13.40;86.80;;;;;;5050659;28;20033;-70
2021/11/14 05:39:06;;;;;;;9.75;7.53;;;13.40;87.10;;;;;;5050783;28;20021;-70
2021/11/14 05:41:32;;;;;;;8.23;6.35;;;13.30;87.00;;;;;;5052019;28;20021;-70
2021/11/14 05:43:58;;;;;;;10.18;7.40;;;13.30;87.10;;;;;;5054650;28;20044;-70
2021/11/14 05:46:24;;;;;;;11.60;6.60;;;13.30;87.00;;;;;;5054350;28;20091;-70
2021/11/14 05:48:49;;;;;;;8.07;6.35;;;13.30;87.00;;;;;;5054115;28;20061;-70
2021/11/14 05:51:15;;;;;;;8.40;6.18;;;13.30;86.50;;;;;;5053987;28;20025;-70
2021/11/14 05:53:41;;;;;;;9.10;6.10;;;13.40;85.80;;;;;;5054051;28;20014;-70
2021/11/14 05:56:06;;;;;;;7.88;6.35;;;13.40;85.40;;;;;;5053891;28;20032;-70
2021/11/14 05:58:44;;;;;;;8.77;5.85;;;13.40;85.10;;;;;;5054053;28;20064;-70
2021/11/14 06:01:15;;;;;;;7.75;5.93;;;13.40;84.90;;;;;;5054310;28;20420;-70
2021/11/14 06:06:07;;;;;;;7.50;5.70;;;13.40;84.30;;;;;;5054572;28;20554;-70
2021/11/14 06:08:34;;;;;;;9.40;5.93;;;13.40;84.10;;;;;;5052586;28;20037;-69
2021/11/14 06:10:59;;;;;;;8.57;5.93;;;13.40;83.70;;;;;;5053585;28;20392;-70
2021/11/14 06:13:28;;;;;;;8.32;5.53;;;13.40;83.70;;;;;;5053684;28;20108;-71
2021/11/14 06:15:54;;;;;;;8.95;5.88;;;13.40;83.60;;;;;;5053684;28;20033;-70
2021/11/14 06:18:20;;;;;;;6.57;5.15;;;13.40;83.50;;;;;;5053676;28;20087;-69
2021/11/14 06:20:46;;;;;;;6.85;5.63;;;13.40;83.50;;;;;;5053698;28;20396;-70
2021/11/14 06:23:13;;;;;;;6.72;5.70;;;13.40;83.30;;;;;;5053535;28;20075;-70
2021/11/14 06:25:39;;;;;;;8.02;5.40;;;13.40;82.90;;;;;;5053573;28;20021;-70
2021/11/14 06:28:05;;;;;;;6.43;4.93;;;13.40;82.60;;;;;;5053347;28;20036;-70
2021/11/14 06:30:32;;;;;;;13.10;5.05;;;13.40;82.60;;;;;;5053523;28;20029;-69
2021/11/14 06:32:57;;;;;;;6.00;5.18;;;13.40;82.50;;;;;;5053210;28;20092;-70
2021/11/14 06:35:23;;;;;;;6.40;5.03;;;13.40;82.60;;;;;;5053223;28;20131;-70
2021/11/14 06:37:49;;;;;;;6.35;4.60;;;13.40;82.30;;;;;;5052933;28;20522;-70
2021/11/14 06:40:15;;;;;;;7.45;4.22;;;13.40;81.40;;;;;;5053242;28;20029;-70
2021/11/14 06:42:41;;;;;;;5.93;4.50;;;13.50;80.80;;;;;;5052955;28;20094;-70
2021/11/14 06:45:08;;;;;;;5.60;3.95;;;13.50;80.50;;;;;;5053465;28;20121;-70
2021/11/14 06:47:33;;;;;;;5.13;4.18;;;13.50;80.40;;;;;;5052931;28;20025;-69
2021/11/14 06:49:59;;;;;;;5.60;4.03;;;13.50;79.80;;;;;;5052830;28;20044;-69
2021/11/14 06:52:25;;;;;;;9.55;4.63;;;13.50;79.30;;;;;;5052447;28;20100;-70
2021/11/14 06:54:51;;;;;;;4.55;4.00;;;13.60;79.20;;;;;;5052756;28;20477;-69
2021/11/14 06:57:18;;;;;;;6.60;4.20;;;13.60;79.10;;;;;;5052745;28;20432;-70
2021/11/14 06:59:45;;;;;;;5.93;4.10;;;13.70;78.90;;;;;;5052616;28;20551;-71
2021/11/14 07:02:10;;;;;;;6.82;3.97;;;13.70;78.90;;;;;;5052828;28;20107;-69
2021/11/14 07:04:36;;;;;;;5.13;3.97;;;13.70;78.60;;;;;;5053644;28;20108;-70
2021/11/14 07:07:03;;;;;;;6.53;4.03;;;13.70;78.30;;;;;;5053312;28;20016;-70
2021/11/14 07:09:28;;;;;;;6.90;4.00;;;13.70;78.00;;;;;;5054266;28;20036;-70
2021/11/14 07:11:54;;;;;;;6.82;3.83;;;13.80;77.90;;;;;;5054063;28;20025;-70
2021/11/14 07:14:22;;;;;;;6.30;3.83;;;13.80;77.70;;;;;;5054237;28;20111;-71
2021/11/14 07:16:49;;;;;;;6.32;4.15;;;13.80;77.60;;;;;;5053940;28;20041;-70
2021/11/14 07:19:15;;;;;;;4.80;3.78;;;13.80;77.40;;;;;;5054056;28;20056;-70
2021/11/14 07:21:40;;;;;;;4.25;3.40;;;13.80;77.40;;;;;;5052419;28;20032;-71
2021/11/14 07:24:06;;;;;;;5.15;4.13;;;13.80;77.00;;;;;;5051506;28;20053;-70
2021/11/14 07:26:32;;;;;;;5.72;3.70;;;13.90;77.00;;;;;;5052108;28;20029;-69
2021/11/14 07:28:58;;;;;;;4.70;3.75;;;13.80;77.10;;;;;;5054095;28;20096;-69
2021/11/14 07:31:23;;;;;;;5.00;4.20;;;13.90;77.10;;;;;;5054071;28;20033;-69
2021/11/14 07:33:49;;;;;;;6.38;3.95;;;13.90;76.90;;;;;;5053845;28;20021;-70
2021/11/14 07:36:15;;;;;;;5.35;4.05;;;13.90;76.60;;;;;;5054036;28;20044;-69
2021/11/14 07:38:41;;;;;;;4.90;3.50;;;13.90;76.40;;;;;;5053970;28;20056;-69
2021/11/14 07:41:07;;;;;;;4.97;4.05;;;13.90;76.00;;;;;;5053840;28;20033;-69
2021/11/14 07:43:33;;;;;;;4.70;3.72;;;13.90;76.10;;;;;;5054063;28;20485;-68
2021/11/14 07:45:59;;;;;;;4.88;3.92;;;13.90;76.30;;;;;;5053682;28;20066;-68
2021/11/14 07:48:25;;;;;;;5.78;3.92;;;13.90;76.20;;;;;;5053748;28;20470;-69
2021/11/14 07:50:54;;;;;;;3.67;3.28;;;13.90;75.90;;;;;;5053426;28;20021;-69
2021/11/14 07:53:20;;;;;;;6.13;4.03;;;13.90;75.90;;;;;;5053729;28;20028;-69
2021/11/14 07:55:46;;;;;;;5.18;3.85;;;13.90;75.60;;;;;;5053676;28;20059;-69
2021/11/14 07:58:11;;;;;;;8.43;3.63;;;13.90;75.40;;;;;;5053225;28;20025;-69
2021/11/14 08:00:38;;;;;;;5.75;4.40;;;14.00;75.60;;;;;;5053821;28;20033;-70
2021/11/14 08:03:04;;;;;;;7.38;3.90;;;14.00;75.50;;;;;;5053380;28;20025;-69
2021/11/14 08:05:30;;;;;;;8.63;4.25;;;14.00;75.30;;;;;;5053380;28;20032;-69
2021/11/14 08:07:56;;;;;;;4.50;3.47;;;14.00;75.10;;;;;;5053075;28;20485;-69
2021/11/14 08:10:23;;;;;;;4.15;3.35;;;14.00;74.40;;;;;;5053460;28;20048;-69
2021/11/14 08:12:49;;;;;;;6.25;3.22;;;14.00;74.10;;;;;;5053379;28;20035;-69
2021/11/14 08:15:16;;;;;;;4.70;4.05;;;14.00;74.20;;;;;;5053074;28;20029;-69
2021/11/14 08:17:42;;;;;;;5.22;3.75;;;14.00;74.00;;;;;;5053082;28;20029;-69
2021/11/14 08:20:09;;;;;;;4.88;3.53;;;14.00;74.20;;;;;;5052120;28;20543;-69
2021/11/14 08:22:35;;;;;;;4.63;3.80;;;13.90;73.60;;;;;;5052652;28;20048;-68
2021/11/14 08:25:02;;;;;;;4.05;3.30;;;14.00;73.50;;;;;;5053076;28;20060;-69
2021/11/14 08:27:30;;;;;;;9.68;3.45;;;13.90;73.50;;;;;;5052998;28;20029;-69
2021/11/14 08:29:57;;;;;;;4.55;3.45;;;14.00;73.90;;;;;;5052975;28;20040;-69
2021/11/14 08:32:23;;;;;;;4.82;3.25;;;14.00;73.80;;;;;;5052512;28;20057;-69
2021/11/14 08:34:49;;;;;;;5.03;3.47;;;14.00;73.70;;;;;;5052918;28;20114;-69
2021/11/14 08:37:14;;;;;;;4.18;3.15;;;14.10;73.70;;;;;;5052714;28;20040;-69
2021/11/14 08:39:40;;;;;;;6.30;3.35;;;14.10;73.40;;;;;;5053016;28;20104;-69
2021/11/14 08:42:06;;;;;;;4.55;2.78;;;14.20;73.20;;;;;;5052644;28;20424;-69
2021/11/14 08:44:32;;;;;;;4.25;2.88;;;14.30;72.70;;;;;;5052704;28;20380;-68
2021/11/14 08:46:58;;;;;;;4.18;3.25;;;14.30;72.50;;;;;;5052510;28;20025;-68
2021/11/14 08:49:24;;;;;;;3.92;3.30;;;14.40;72.80;;;;;;5052342;28;20082;-70
2021/11/14 08:51:50;;;;;;;3.50;2.90;;;14.40;72.30;;;;;;5052777;28;20021;-67
2021/11/14 08:54:16;;;;;;;4.75;3.33;;;14.50;72.20;;;;;;5052826;28;20040;-70
2021/11/14 08:56:42;;;;;;;4.32;3.63;;;14.50;72.30;;;;;;5052454;28;20037;-69
2021/11/14 08:59:08;;;;;;;5.40;3.50;;;14.50;72.30;;;;;;5052820;28;20017;-67
2021/11/14 09:01:35;;;;;;;3.22;2.70;;;14.60;72.50;;;;;;5052577;28;20442;-69
2021/11/14 09:04:01;;;;;;;4.45;3.05;;;14.70;72.50;;;;;;5052475;28;20098;-69
2021/11/14 09:06:28;;;;;;;3.70;3.05;;;14.70;72.20;;;;;;5052564;28;20465;-69
2021/11/14 09:08:54;;;;;;;5.60;3.08;;;14.80;72.30;;;;;;5052485;28;20021;-70
2021/11/14 09:11:20;;;;;;;3.55;3.05;;;14.80;71.80;;;;;;5052427;28;20036;-69
2021/11/14 09:13:47;;;;;;;5.20;3.20;;;14.80;71.40;;;;;;5052766;28;20392;-68
2021/11/14 09:16:12;;;;;;;3.63;3.00;;;14.90;71.30;;;;;;5053672;28;20489;-68
2021/11/14 09:18:39;;;;;;;4.47;2.80;;;15.00;71.10;;;;;;5056306;28;20073;-68
2021/11/14 09:21:05;;;;;;;4.63;3.17;;;15.00;71.10;;;;;;5054038;28;20032;-68
2021/11/14 09:23:31;;;;;;;4.22;3.22;;;15.00;70.40;;;;;;5055629;28;20474;-70
2021/11/14 09:25:57;;;;;;;3.35;2.72;;;15.10;70.00;;;;;;5056503;28;20028;-68
2021/11/14 09:28:24;;;;;;;3.58;3.10;;;15.20;69.90;;;;;;5056193;28;20367;-69
2021/11/14 09:30:50;;;;;;;6.18;2.92;;;15.20;69.50;;;;;;5056287;28;20033;-68
2021/11/14 09:33:22;;;;;;;3.08;2.72;;;15.30;69.40;;;;;;5054750;28;20033;-68
2021/11/14 09:35:48;;;;;;;3.35;2.80;;;15.30;69.00;;;;;;5053356;28;20040;-69
2021/11/14 09:38:14;;;;;;;3.85;2.95;;;15.30;68.80;;;;;;5053360;28;20103;-69
2021/11/14 09:40:40;;;;;;;3.60;3.30;;;15.40;69.20;;;;;;5056404;28;20362;-69
2021/11/14 09:43:07;;;;;;;5.20;2.90;;;15.40;69.30;;;;;;5056037;28;20507;-68
2021/11/14 09:45:34;;;;;;;2.97;2.42;;;15.50;69.00;;;;;;5055537;28;20654;-69
2021/11/14 09:48:00;;;;;;;2.92;2.25;;;15.50;68.50;;;;;;5055102;28;20442;-69
2021/11/14 09:50:27;;;;;;;2.42;2.10;;;15.60;68.20;;;;;;5055514;28;20039;-69
2021/11/14 09:52:54;;;;;;;3.30;2.22;;;15.60;67.70;;;;;;5056045;28;20029;-75
2021/11/14 09:55:20;;;;;;;2.47;2.10;;;15.70;67.00;;;;;;5055971;28;20428;-74
2021/11/14 09:57:48;;;;;;;3.67;2.20;;;15.80;66.20;;;;;;5054815;28;20090;-73
2021/11/14 10:00:16;;;;;;;2.33;2.05;;;15.80;65.70;;;;;;5052824;28;20477;-75
2021/11/14 10:02:43;;;;;;;5.18;2.60;;;15.80;64.90;;;;;;5053030;28;20044;-74
2021/11/14 10:05:14;;;;;;;2.28;2.08;;;15.80;65.30;;;;;;5054119;28;20544;-74
2021/11/14 10:07:51;;;;;;;3.70;2.43;;;15.90;65.30;;;;;;5055694;28;20097;-75
2021/11/14 10:10:17;;;;;;;2.92;2.13;;;15.90;65.10;;;;;;5055552;28;20339;-74
2021/11/14 10:12:43;;;;;;;2.78;2.10;;;15.90;64.40;;;;;;5055515;28;20052;-74
2021/11/14 10:15:14;;;;;;;2.67;2.22;;;16.00;64.20;;;;;;5055491;28;20108;-74
2021/11/14 10:17:49;;;;;;;3.28;2.00;;;16.00;64.30;;;;;;5055576;28;20021;-72
2021/11/14 10:20:16;;;;;;;2.58;2.30;;;16.10;63.70;;;;;;5055095;28;20091;-75
2021/11/14 10:22:45;;;;;;;3.28;2.30;;;16.10;63.20;;;;;;5055319;28;20086;-74
2021/11/14 10:25:15;;;;;;;5.60;2.40;;;16.10;63.40;;;;;;5055910;28;20472;-73
2021/11/14 10:27:41;;;;;;;3.05;2.60;;;16.10;63.70;;;;;;5054229;28;20449;-74
2021/11/14 10:30:10;;;;;;;2.67;2.28;;;16.10;63.90;;;;;;5055290;28;20025;-75
2021/11/14 10:32:36;;;;;;;2.92;2.63;;;16.20;63.20;;;;;;5055052;28;20028;-73
2021/11/14 10:35:03;;;;;;;2.90;2.40;;;16.20;63.50;;;;;;5054940;28;20027;-70
2021/11/14 10:37:39;;;;;;;2.90;2.38;;;16.20;62.30;;;;;;5055055;28;20037;-74
2021/11/14 10:40:06;;;;;;;3.00;2.50;;;16.20;62.60;;;;;;5055044;28;20037;-74
2021/11/14 10:42:33;;;;;;;6.00;2.50;;;16.20;62.30;;;;;;5054896;28;20029;-72
2021/11/14 10:45:03;;;;;;;2.67;2.38;;;16.20;62.20;;;;;;5055274;28;20623;-74
2021/11/14 10:47:30;;;;;;;2.75;2.50;;;16.20;62.60;;;;;;5054937;28;20021;-75
2021/11/14 10:50:00;;;;;;;2.90;2.47;;;16.20;62.50;;;;;;5055112;28;20367;-74
2021/11/14 10:52:30;;;;;;;3.22;2.88;;;16.20;62.60;;;;;;5055109;28;20441;-72
2021/11/14 10:54:59;;;;;;;2.92;2.63;;;16.30;62.40;;;;;;5054794;28;20039;-75
2021/11/14 10:57:27;;;;;;;2.42;2.13;;;16.30;63.40;;;;;;5055326;28;20115;-74
2021/11/14 10:59:53;;;;;;;3.00;2.65;;;16.30;62.50;;;;;;5055247;28;20021;-74
2021/11/14 11:02:20;;;;;;;5.35;2.72;;;16.40;62.70;;;;;;5055016;28;20032;-75
2021/11/14 11:04:47;;;;;;;3.35;2.40;;;16.40;61.80;;;;;;5055005;28;20029;-74
2021/11/14 11:07:14;;;;;;;3.20;2.80;;;16.40;62.30;;;;;;5054619;28;20103;-74
2021/11/14 11:09:42;;;;;;;3.90;3.10;;;16.40;62.70;;;;;;5054694;28;20036;-74
2021/11/14 11:12:23;;;;;;;3.25;2.40;;;16.50;62.30;;;;;;5054620;28;20025;-73
2021/11/14 11:15:05;;;;;;;2.85;2.55;;;16.50;62.30;;;;;;5054808;28;20108;-72
2021/11/14 11:17:44;;;;;;;3.92;2.47;;;16.50;62.40;;;;;;5054395;28;20079;-75
2021/11/14 11:20:12;;;;;;;2.90;2.58;;;16.60;61.50;;;;;;5054336;28;20053;-74
2021/11/14 11:23:03;;;;;;;5.88;2.60;;;16.50;61.10;;;;;;5054383;28;20029;-74
2021/11/14 11:25:46;;;;;;;3.10;2.60;;;16.50;61.80;;;;;;5054315;28;20025;-75
2021/11/14 11:28:25;;;;;;;4.20;2.80;;;16.40;62.00;;;;;;5054250;28;20049;-74
2021/11/14 11:30:59;;;;;;;3.20;2.40;;;16.40;61.10;;;;;;5054261;28;20029;-73
2021/11/14 11:33:27;;;;;;;2.80;2.50;;;16.40;61.20;;;;;;5054327;28;20264;-74
2021/11/14 11:35:54;;;;;;;3.10;2.78;;;16.30;60.90;;;;;;5053854;28;20029;-75
2021/11/14 11:38:21;;;;;;;3.65;2.60;;;16.30;61.60;;;;;;5053613;28;20079;-72
2021/11/14 11:40:50;;;;;;;5.75;2.88;;;16.20;61.80;;;;;;5053312;28;20041;-75
2021/11/14 11:43:16;;;;;;;2.90;2.30;;;16.20;61.70;;;;;;5053477;28;20112;-75
2021/11/14 11:45:45;;;;;;;3.53;3.00;;;16.20;61.20;;;;;;5053439;28;20123;-75
2021/11/14 11:48:20;;;;;;;3.25;2.70;;;16.10;61.80;;;;;;5053459;28;20021;-76
2021/11/14 11:50:46;;;;;;;4.10;2.78;;;16.00;62.10;;;;;;5053740;28;20043;-75
2021/11/14 11:53:27;;;;;;;3.47;2.88;;;16.00;62.40;;;;;;5053934;28;20027;-73
2021/11/14 11:56:07;;;;;;;2.83;2.30;;;16.00;62.80;;;;;;5053796;28;20503;-76
2021/11/14 11:58:39;;;;;;;3.42;2.30;;;16.00;62.50;;;;;;5051670;28;20037;-76
2021/11/14 12:01:06;;;;;;;4.88;2.60;;;16.00;63.10;;;;;;5050999;28;20025;-76
2021/11/14 12:03:34;;;;;;;3.38;2.40;;;16.00;63.10;;;;;;5051383;28;20059;-75
2021/11/14 12:06:02;;;;;;;2.97;2.30;;;16.00;63.10;;;;;;5053454;28;20103;-75
2021/11/14 12:08:50;;;;;;;2.42;1.98;;;16.00;62.60;;;;;;5053448;28;20029;-76
2021/11/14 12:11:34;;;;;;;3.00;2.30;;;16.00;62.70;;;;;;5053600;28;20469;-77
2021/11/14 12:14:12;;;;;;;4.90;2.58;;;16.10;63.20;;;;;;5053391;28;20065;-76
2021/11/14 12:16:38;;;;;;;2.67;1.95;;;16.00;62.90;;;;;;5053088;28;20047;-74
2021/11/14 12:19:04;;;;;;;2.05;1.65;;;16.00;61.90;;;;;;5052900;28;20469;-77
2021/11/14 12:21:31;;;;;;;3.35;1.75;;;16.00;61.60;;;;;;5053241;28;20087;-75
2021/11/14 12:24:06;;;;;;;2.35;2.05;;;16.00;61.80;;;;;;5051024;28;20021;-75
2021/11/14 12:26:36;;;;;;;3.70;1.92;;;16.00;62.40;;;;;;5049985;28;20031;-77
2021/11/14 12:29:07;;;;;;;3.65;1.80;;;16.00;62.40;;;;;;5050607;28;20075;-76
2021/11/14 12:31:49;;;;;;;1.73;1.52;;;16.10;61.70;;;;;;5053149;28;20025;-74
2021/11/14 12:34:32;;;;;;;2.35;1.88;;;16.10;62.20;;;;;;5052928;28;20553;-74
2021/11/14 12:37:13;;;;;;;3.55;1.92;;;16.10;62.60;;;;;;5052740;28;20047;-69
2021/11/14 12:39:41;;;;;;;2.05;1.70;;;16.10;62.40;;;;;;5052343;28;20020;-74
2021/11/14 12:42:18;;;;;;;3.55;1.70;;;16.20;62.80;;;;;;5052591;28;20111;-70